sensor_id;sensor_type;location;lat;lon;timestamp;temperature;humidity
15879;DHT22;61999;51.514;14.614;2023-07-22T00:01:58;10.70;67.30
15879;DHT22;61999;51.514;14.614;2023-07-22T00:04:26;10.60;67.80
15879;DHT22;61999;51.514;14.614;2023-07-22T00:06:53;10.60;67.40
15879;DHT22;61999;51.514;14.614;2023-07-22T00:09:21;10.60;67.60
15879;DHT22;61999;51.514;14.614;2023-07-22T00:11:52;10.60;67.60
15879;DHT22;61999;51.514;14.614;2023-07-22T00:14:19;10.50;67.60
15879;DHT22;61999;51.514;14.614;2023-07-22T00:16:47;10.50;67.50
15879;DHT22;61999;51.514;14.614;2023-07-22T00:19:15;10.50;67.50
15879;DHT22;61999;51.514;14.614;2023-07-22T00:21:44;10.50;67.50
15879;DHT22;61999;51.514;14.614;2023-07-22T00:24:12;10.40;67.80
15879;DHT22;61999;51.514;14.614;2023-07-22T00:26:41;10.40;67.80
15879;DHT22;61999;51.514;14.614;2023-07-22T00:29:10;10.30;67.70
15879;DHT22;61999;51.514;14.614;2023-07-22T00:31:38;10.30;67.90
15879;DHT22;61999;51.514;14.614;2023-07-22T00:34:08;10.30;67.90
15879;DHT22;61999;51.514;14.614;2023-07-22T00:36:36;10.20;68.00
15879;DHT22;61999;51.514;14.614;2023-07-22T00:39:05;10.30;68.10
15879;DHT22;61999;51.514;14.614;2023-07-22T00:41:33;10.30;67.90
15879;DHT22;61999;51.514;14.614;2023-07-22T00:44:01;10.30;67.80
15879;DHT22;61999;51.514;14.614;2023-07-22T00:46:30;10.40;67.60
15879;DHT22;61999;51.514;14.614;2023-07-22T00:48:58;10.50;67.40
15879;DHT22;61999;51.514;14.614;2023-07-22T00:51:26;10.40;67.30
15879;DHT22;61999;51.514;14.614;2023-07-22T00:53:54;10.30;67.40
15879;DHT22;61999;51.514;14.614;2023-07-22T00:56:22;10.20;67.80
15879;DHT22;61999;51.514;14.614;2023-07-22T00:58:50;10.30;67.90
15879;DHT22;61999;51.514;14.614;2023-07-22T01:01:18;10.10;67.90
15879;DHT22;61999;51.514;14.614;2023-07-22T01:03:47;10.00;68.20
15879;DHT22;61999;51.514;14.614;2023-07-22T01:06:15;10.00;68.40
15879;DHT22;61999;51.514;14.614;2023-07-22T01:08:44;9.90;68.70
15879;DHT22;61999;51.514;14.614;2023-07-22T01:11:14;9.90;68.50
15879;DHT22;61999;51.514;14.614;2023-07-22T01:13:42;9.90;68.40
15879;DHT22;61999;51.514;14.614;2023-07-22T01:16:10;9.90;68.40
15879;DHT22;61999;51.514;14.614;2023-07-22T01:18:38;10.00;68.20
15879;DHT22;61999;51.514;14.614;2023-07-22T01:21:08;10.10;68.60
15879;DHT22;61999;51.514;14.614;2023-07-22T01:23:39;10.20;67.70
15879;DHT22;61999;51.514;14.614;2023-07-22T01:26:08;10.10;67.60
15879;DHT22;61999;51.514;14.614;2023-07-22T01:28:36;10.00;67.90
15879;DHT22;61999;51.514;14.614;2023-07-22T01:31:04;10.10;67.70
15879;DHT22;61999;51.514;14.614;2023-07-22T01:33:32;10.00;68.00
15879;DHT22;61999;51.514;14.614;2023-07-22T01:36:00;10.00;68.30
15879;DHT22;61999;51.514;14.614;2023-07-22T01:38:28;10.10;68.00
15879;DHT22;61999;51.514;14.614;2023-07-22T01:40:59;10.10;67.90
15879;DHT22;61999;51.514;14.614;2023-07-22T01:43:27;10.00;68.10
15879;DHT22;61999;51.514;14.614;2023-07-22T01:45:55;10.00;68.20
15879;DHT22;61999;51.514;14.614;2023-07-22T01:48:22;10.10;67.90
15879;DHT22;61999;51.514;14.614;2023-07-22T01:50:51;10.10;68.00
15879;DHT22;61999;51.514;14.614;2023-07-22T01:53:19;10.00;68.30
15879;DHT22;61999;51.514;14.614;2023-07-22T01:55:47;10.00;68.40
15879;DHT22;61999;51.514;14.614;2023-07-22T01:58:17;10.00;68.60
15879;DHT22;61999;51.514;14.614;2023-07-22T02:00:49;10.10;68.50
15879;DHT22;61999;51.514;14.614;2023-07-22T02:03:17;9.90;68.90
15879;DHT22;61999;51.514;14.614;2023-07-22T02:05:45;10.00;69.10
15879;DHT22;61999;51.514;14.614;2023-07-22T02:08:13;10.00;69.20
15879;DHT22;61999;51.514;14.614;2023-07-22T02:10:41;9.90;69.10
15879;DHT22;61999;51.514;14.614;2023-07-22T02:13:09;10.10;68.80
15879;DHT22;61999;51.514;14.614;2023-07-22T02:15:41;10.00;69.00
15879;DHT22;61999;51.514;14.614;2023-07-22T02:18:09;10.10;68.80
15879;DHT22;61999;51.514;14.614;2023-07-22T02:20:37;10.10;69.00
15879;DHT22;61999;51.514;14.614;2023-07-22T02:23:05;10.20;68.70
15879;DHT22;61999;51.514;14.614;2023-07-22T02:25:35;10.20;68.80
15879;DHT22;61999;51.514;14.614;2023-07-22T02:28:03;10.20;68.50
15879;DHT22;61999;51.514;14.614;2023-07-22T02:30:33;10.20;68.70
15879;DHT22;61999;51.514;14.614;2023-07-22T02:33:06;10.10;69.20
15879;DHT22;61999;51.514;14.614;2023-07-22T02:35:35;10.00;69.10
15879;DHT22;61999;51.514;14.614;2023-07-22T02:38:03;10.00;69.30
15879;DHT22;61999;51.514;14.614;2023-07-22T02:40:34;9.80;69.70
15879;DHT22;61999;51.514;14.614;2023-07-22T02:43:02;9.80;70.00
15879;DHT22;61999;51.514;14.614;2023-07-22T02:45:30;9.60;70.40
15879;DHT22;61999;51.514;14.614;2023-07-22T02:47:58;9.40;70.90
15879;DHT22;61999;51.514;14.614;2023-07-22T02:50:28;9.40;71.40
15879;DHT22;61999;51.514;14.614;2023-07-22T02:52:55;9.40;71.20
15879;DHT22;61999;51.514;14.614;2023-07-22T02:55:23;9.50;70.90
15879;DHT22;61999;51.514;14.614;2023-07-22T02:57:51;9.50;71.20
15879;DHT22;61999;51.514;14.614;2023-07-22T03:00:20;9.50;71.00
15879;DHT22;61999;51.514;14.614;2023-07-22T03:02:51;9.50;71.20
15879;DHT22;61999;51.514;14.614;2023-07-22T03:05:20;9.40;71.60
15879;DHT22;61999;51.514;14.614;2023-07-22T03:07:49;9.30;71.60
15879;DHT22;61999;51.514;14.614;2023-07-22T03:10:17;9.30;71.70
15879;DHT22;61999;51.514;14.614;2023-07-22T03:12:45;9.40;71.40
15879;DHT22;61999;51.514;14.614;2023-07-22T03:15:15;9.30;71.30
15879;DHT22;61999;51.514;14.614;2023-07-22T03:17:45;9.50;70.90
15879;DHT22;61999;51.514;14.614;2023-07-22T03:20:13;9.40;71.70
15879;DHT22;61999;51.514;14.614;2023-07-22T03:22:43;9.40;71.00
15879;DHT22;61999;51.514;14.614;2023-07-22T03:25:14;9.50;70.90
15879;DHT22;61999;51.514;14.614;2023-07-22T03:27:44;9.50;70.90
15879;DHT22;61999;51.514;14.614;2023-07-22T03:30:13;9.40;70.80
15879;DHT22;61999;51.514;14.614;2023-07-22T03:32:43;9.60;71.10
15879;DHT22;61999;51.514;14.614;2023-07-22T03:35:12;9.50;70.60
15879;DHT22;61999;51.514;14.614;2023-07-22T03:37:40;9.70;70.20
15879;DHT22;61999;51.514;14.614;2023-07-22T03:40:09;9.60;70.30
15879;DHT22;61999;51.514;14.614;2023-07-22T03:42:46;9.50;70.60
15879;DHT22;61999;51.514;14.614;2023-07-22T03:45:14;9.20;71.10
15879;DHT22;61999;51.514;14.614;2023-07-22T03:47:44;9.20;71.10
15879;DHT22;61999;51.514;14.614;2023-07-22T03:50:13;9.20;71.90
15879;DHT22;61999;51.514;14.614;2023-07-22T03:52:41;9.50;71.30
15879;DHT22;61999;51.514;14.614;2023-07-22T03:55:09;9.60;70.60
15879;DHT22;61999;51.514;14.614;2023-07-22T03:57:38;9.70;70.30
15879;DHT22;61999;51.514;14.614;2023-07-22T04:00:07;9.70;70.10
15879;DHT22;61999;51.514;14.614;2023-07-22T04:02:37;9.40;70.80
15879;DHT22;61999;51.514;14.614;2023-07-22T04:05:05;9.10;71.80
15879;DHT22;61999;51.514;14.614;2023-07-22T04:07:35;9.20;71.70
15879;DHT22;61999;51.514;14.614;2023-07-22T04:10:03;9.00;72.90
15879;DHT22;61999;51.514;14.614;2023-07-22T04:12:32;9.30;71.40
15879;DHT22;61999;51.514;14.614;2023-07-22T04:15:01;9.50;70.60
15879;DHT22;61999;51.514;14.614;2023-07-22T04:17:30;9.40;70.80
15879;DHT22;61999;51.514;14.614;2023-07-22T04:19:58;9.30;71.00
15879;DHT22;61999;51.514;14.614;2023-07-22T04:22:26;9.20;71.60
15879;DHT22;61999;51.514;14.614;2023-07-22T04:24:55;9.10;71.80
15879;DHT22;61999;51.514;14.614;2023-07-22T04:27:23;8.80;72.70
15879;DHT22;61999;51.514;14.614;2023-07-22T04:29:51;8.90;72.80
15879;DHT22;61999;51.514;14.614;2023-07-22T04:32:21;9.00;72.40
15879;DHT22;61999;51.514;14.614;2023-07-22T04:34:49;8.90;72.80
15879;DHT22;61999;51.514;14.614;2023-07-22T04:37:17;8.90;72.80
15879;DHT22;61999;51.514;14.614;2023-07-22T04:39:49;9.00;72.50
15879;DHT22;61999;51.514;14.614;2023-07-22T04:42:17;8.70;73.30
15879;DHT22;61999;51.514;14.614;2023-07-22T04:44:45;8.80;73.20
15879;DHT22;61999;51.514;14.614;2023-07-22T04:47:12;9.00;72.30
15879;DHT22;61999;51.514;14.614;2023-07-22T04:49:42;9.00;72.70
15879;DHT22;61999;51.514;14.614;2023-07-22T04:52:10;9.00;72.60
15879;DHT22;61999;51.514;14.614;2023-07-22T04:54:37;9.00;72.70
15879;DHT22;61999;51.514;14.614;2023-07-22T04:57:06;9.20;71.90
15879;DHT22;61999;51.514;14.614;2023-07-22T04:59:33;9.40;71.30
15879;DHT22;61999;51.514;14.614;2023-07-22T05:02:01;9.40;71.30
15879;DHT22;61999;51.514;14.614;2023-07-22T05:04:29;9.60;70.70
15879;DHT22;61999;51.514;14.614;2023-07-22T05:06:59;9.50;70.70
15879;DHT22;61999;51.514;14.614;2023-07-22T05:09:26;9.30;71.20
15879;DHT22;61999;51.514;14.614;2023-07-22T05:11:54;9.50;70.70
15879;DHT22;61999;51.514;14.614;2023-07-22T05:14:23;9.70;70.40
15879;DHT22;61999;51.514;14.614;2023-07-22T05:16:51;9.80;69.80
15879;DHT22;61999;51.514;14.614;2023-07-22T05:19:19;9.70;70.50
15879;DHT22;61999;51.514;14.614;2023-07-22T05:21:47;9.80;69.60
15879;DHT22;61999;51.514;14.614;2023-07-22T05:24:17;9.90;69.40
15879;DHT22;61999;51.514;14.614;2023-07-22T05:26:44;9.90;69.00
15879;DHT22;61999;51.514;14.614;2023-07-22T05:29:17;9.90;69.30
15879;DHT22;61999;51.514;14.614;2023-07-22T05:31:45;9.80;69.10
15879;DHT22;61999;51.514;14.614;2023-07-22T05:34:13;9.80;69.50
15879;DHT22;61999;51.514;14.614;2023-07-22T05:36:41;10.00;69.00
15879;DHT22;61999;51.514;14.614;2023-07-22T05:39:09;10.10;68.60
15879;DHT22;61999;51.514;14.614;2023-07-22T05:41:39;10.20;68.70
15879;DHT22;61999;51.514;14.614;2023-07-22T05:44:07;10.00;68.70
15879;DHT22;61999;51.514;14.614;2023-07-22T05:46:35;10.30;68.10
15879;DHT22;61999;51.514;14.614;2023-07-22T05:49:05;10.20;68.60
15879;DHT22;61999;51.514;14.614;2023-07-22T05:51:32;10.20;68.90
15879;DHT22;61999;51.514;14.614;2023-07-22T05:54:00;10.30;67.90
15879;DHT22;61999;51.514;14.614;2023-07-22T05:56:28;10.60;66.80
15879;DHT22;61999;51.514;14.614;2023-07-22T05:58:57;10.50;67.50
15879;DHT22;61999;51.514;14.614;2023-07-22T06:01:25;10.70;67.00
15879;DHT22;61999;51.514;14.614;2023-07-22T06:03:54;10.90;65.70
15879;DHT22;61999;51.514;14.614;2023-07-22T06:06:22;11.00;64.70
15879;DHT22;61999;51.514;14.614;2023-07-22T06:08:50;11.00;64.20
15879;DHT22;61999;51.514;14.614;2023-07-22T06:11:18;10.90;64.60
15879;DHT22;61999;51.514;14.614;2023-07-22T06:13:46;10.80;65.20
15879;DHT22;61999;51.514;14.614;2023-07-22T06:16:15;10.80;65.00
15879;DHT22;61999;51.514;14.614;2023-07-22T06:18:43;10.70;65.80
15879;DHT22;61999;51.514;14.614;2023-07-22T06:21:11;10.80;65.30
15879;DHT22;61999;51.514;14.614;2023-07-22T06:23:39;10.90;65.00
15879;DHT22;61999;51.514;14.614;2023-07-22T06:26:07;11.00;64.20
15879;DHT22;61999;51.514;14.614;2023-07-22T06:28:35;11.10;63.90
15879;DHT22;61999;51.514;14.614;2023-07-22T06:31:03;11.00;64.00
15879;DHT22;61999;51.514;14.614;2023-07-22T06:33:32;10.90;64.80
15879;DHT22;61999;51.514;14.614;2023-07-22T06:36:00;10.90;65.00
15879;DHT22;61999;51.514;14.614;2023-07-22T06:38:28;11.00;64.80
15879;DHT22;61999;51.514;14.614;2023-07-22T06:40:56;11.10;64.60
15879;DHT22;61999;51.514;14.614;2023-07-22T06:43:25;11.30;63.70
15879;DHT22;61999;51.514;14.614;2023-07-22T06:45:54;11.40;63.30
15879;DHT22;61999;51.514;14.614;2023-07-22T06:48:21;11.40;63.00
15879;DHT22;61999;51.514;14.614;2023-07-22T06:50:51;11.30;63.20
15879;DHT22;61999;51.514;14.614;2023-07-22T06:53:19;11.20;63.70
15879;DHT22;61999;51.514;14.614;2023-07-22T06:55:50;11.30;63.80
15879;DHT22;61999;51.514;14.614;2023-07-22T06:58:19;11.60;62.50
15879;DHT22;61999;51.514;14.614;2023-07-22T07:00:52;11.60;62.50
15879;DHT22;61999;51.514;14.614;2023-07-22T07:03:22;11.40;63.00
15879;DHT22;61999;51.514;14.614;2023-07-22T07:05:55;11.40;63.20
15879;DHT22;61999;51.514;14.614;2023-07-22T07:08:23;11.30;64.50
15879;DHT22;61999;51.514;14.614;2023-07-22T07:10:51;11.60;62.30
15879;DHT22;61999;51.514;14.614;2023-07-22T07:13:20;11.60;62.20
15879;DHT22;61999;51.514;14.614;2023-07-22T07:15:48;11.80;61.70
15879;DHT22;61999;51.514;14.614;2023-07-22T07:18:16;11.80;59.60
15879;DHT22;61999;51.514;14.614;2023-07-22T07:20:44;12.00;58.40
15879;DHT22;61999;51.514;14.614;2023-07-22T07:23:13;11.90;59.70
15879;DHT22;61999;51.514;14.614;2023-07-22T07:25:42;11.90;60.10
15879;DHT22;61999;51.514;14.614;2023-07-22T07:28:11;12.10;58.00
15879;DHT22;61999;51.514;14.614;2023-07-22T07:30:40;12.20;58.20
15879;DHT22;61999;51.514;14.614;2023-07-22T07:33:09;12.40;56.80
15879;DHT22;61999;51.514;14.614;2023-07-22T07:35:36;12.40;56.50
15879;DHT22;61999;51.514;14.614;2023-07-22T07:38:04;12.50;56.00
15879;DHT22;61999;51.514;14.614;2023-07-22T07:40:34;12.40;57.10
15879;DHT22;61999;51.514;14.614;2023-07-22T07:43:02;12.20;59.40
15879;DHT22;61999;51.514;14.614;2023-07-22T07:45:30;12.30;58.80
15879;DHT22;61999;51.514;14.614;2023-07-22T07:47:58;12.80;56.40
15879;DHT22;61999;51.514;14.614;2023-07-22T07:50:26;12.80;55.60
15879;DHT22;61999;51.514;14.614;2023-07-22T07:52:54;13.00;54.80
15879;DHT22;61999;51.514;14.614;2023-07-22T07:55:22;12.90;54.50
15879;DHT22;61999;51.514;14.614;2023-07-22T07:57:51;12.70;56.10
15879;DHT22;61999;51.514;14.614;2023-07-22T08:00:19;12.60;56.20
15879;DHT22;61999;51.514;14.614;2023-07-22T08:02:47;12.80;55.70
15879;DHT22;61999;51.514;14.614;2023-07-22T08:05:15;12.80;55.30
15879;DHT22;61999;51.514;14.614;2023-07-22T08:07:43;12.80;54.30
15879;DHT22;61999;51.514;14.614;2023-07-22T08:10:11;12.60;55.90
15879;DHT22;61999;51.514;14.614;2023-07-22T08:12:39;12.80;55.30
15879;DHT22;61999;51.514;14.614;2023-07-22T08:15:09;12.90;55.10
15879;DHT22;61999;51.514;14.614;2023-07-22T08:17:38;13.10;52.80
15879;DHT22;61999;51.514;14.614;2023-07-22T08:20:07;13.00;53.20
15879;DHT22;61999;51.514;14.614;2023-07-22T08:22:36;13.00;53.10
15879;DHT22;61999;51.514;14.614;2023-07-22T08:25:05;12.90;53.10
15879;DHT22;61999;51.514;14.614;2023-07-22T08:27:34;12.90;54.00
15879;DHT22;61999;51.514;14.614;2023-07-22T08:30:02;13.00;52.30
15879;DHT22;61999;51.514;14.614;2023-07-22T08:32:31;13.20;53.60
15879;DHT22;61999;51.514;14.614;2023-07-22T08:34:59;13.40;52.30
15879;DHT22;61999;51.514;14.614;2023-07-22T08:37:27;13.70;51.60
15879;DHT22;61999;51.514;14.614;2023-07-22T08:39:55;13.80;50.40
15879;DHT22;61999;51.514;14.614;2023-07-22T08:42:23;13.90;50.80
15879;DHT22;61999;51.514;14.614;2023-07-22T08:44:57;14.30;48.00
15879;DHT22;61999;51.514;14.614;2023-07-22T08:47:30;14.20;49.10
15879;DHT22;61999;51.514;14.614;2023-07-22T08:50:02;14.10;48.50
15879;DHT22;61999;51.514;14.614;2023-07-22T08:52:33;13.90;50.50
15879;DHT22;61999;51.514;14.614;2023-07-22T08:55:02;13.90;50.40
15879;DHT22;61999;51.514;14.614;2023-07-22T08:57:30;14.10;50.30
15879;DHT22;61999;51.514;14.614;2023-07-22T08:59:59;14.50;48.80
15879;DHT22;61999;51.514;14.614;2023-07-22T09:02:33;15.00;46.70
15879;DHT22;61999;51.514;14.614;2023-07-22T09:05:02;15.10;48.70
15879;DHT22;61999;51.514;14.614;2023-07-22T09:07:30;15.20;49.50
15879;DHT22;61999;51.514;14.614;2023-07-22T09:09:59;15.50;46.20
15879;DHT22;61999;51.514;14.614;2023-07-22T09:12:29;15.80;46.10
15879;DHT22;61999;51.514;14.614;2023-07-22T09:14:58;16.00;44.10
15879;DHT22;61999;51.514;14.614;2023-07-22T09:17:27;16.10;45.40
15879;DHT22;61999;51.514;14.614;2023-07-22T09:19:57;16.20;43.60
15879;DHT22;61999;51.514;14.614;2023-07-22T09:22:25;16.30;43.50
15879;DHT22;61999;51.514;14.614;2023-07-22T09:25:12;16.50;42.30
15879;DHT22;61999;51.514;14.614;2023-07-22T09:27:41;16.30;44.50
15879;DHT22;61999;51.514;14.614;2023-07-22T09:30:23;16.40;41.70
15879;DHT22;61999;51.514;14.614;2023-07-22T09:32:54;16.30;41.60
15879;DHT22;61999;51.514;14.614;2023-07-22T09:35:26;16.00;43.80
15879;DHT22;61999;51.514;14.614;2023-07-22T09:37:56;15.90;44.20
15879;DHT22;61999;51.514;14.614;2023-07-22T09:40:27;16.10;43.40
15879;DHT22;61999;51.514;14.614;2023-07-22T09:42:56;16.20;43.10
15879;DHT22;61999;51.514;14.614;2023-07-22T09:45:30;16.40;41.60
15879;DHT22;61999;51.514;14.614;2023-07-22T09:47:58;16.20;42.00
15879;DHT22;61999;51.514;14.614;2023-07-22T09:50:28;16.10;42.30
15879;DHT22;61999;51.514;14.614;2023-07-22T09:52:57;16.10;42.10
15879;DHT22;61999;51.514;14.614;2023-07-22T09:55:27;16.00;43.00
15879;DHT22;61999;51.514;14.614;2023-07-22T09:57:57;16.00;43.60
15879;DHT22;61999;51.514;14.614;2023-07-22T10:00:30;16.40;41.90
15879;DHT22;61999;51.514;14.614;2023-07-22T10:03:01;16.60;42.10
15879;DHT22;61999;51.514;14.614;2023-07-22T10:05:34;16.60;41.30
15879;DHT22;61999;51.514;14.614;2023-07-22T10:08:05;16.70;43.80
15879;DHT22;61999;51.514;14.614;2023-07-22T10:10:35;17.00;40.40
15879;DHT22;61999;51.514;14.614;2023-07-22T10:13:05;17.20;39.20
15879;DHT22;61999;51.514;14.614;2023-07-22T10:15:34;17.20;40.30
15879;DHT22;61999;51.514;14.614;2023-07-22T10:18:03;17.30;39.80
15879;DHT22;61999;51.514;14.614;2023-07-22T10:20:34;17.50;39.10
15879;DHT22;61999;51.514;14.614;2023-07-22T10:23:04;17.30;39.80
15879;DHT22;61999;51.514;14.614;2023-07-22T10:25:35;17.20;39.10
15879;DHT22;61999;51.514;14.614;2023-07-22T10:28:06;17.20;38.60
15879;DHT22;61999;51.514;14.614;2023-07-22T10:30:34;17.30;39.30
15879;DHT22;61999;51.514;14.614;2023-07-22T10:33:03;17.30;40.70
15879;DHT22;61999;51.514;14.614;2023-07-22T10:35:40;17.60;40.90
15879;DHT22;61999;51.514;14.614;2023-07-22T10:38:10;18.20;37.30
15879;DHT22;61999;51.514;14.614;2023-07-22T10:40:46;18.20;37.10
15879;DHT22;61999;51.514;14.614;2023-07-22T10:43:16;18.10;36.30
15879;DHT22;61999;51.514;14.614;2023-07-22T10:45:52;17.90;36.80
15879;DHT22;61999;51.514;14.614;2023-07-22T10:48:27;17.90;37.20
15879;DHT22;61999;51.514;14.614;2023-07-22T10:51:07;18.20;36.60
15879;DHT22;61999;51.514;14.614;2023-07-22T10:53:40;18.40;36.10
15879;DHT22;61999;51.514;14.614;2023-07-22T10:56:13;18.30;35.50
15879;DHT22;61999;51.514;14.614;2023-07-22T10:58:59;18.50;37.50
15879;DHT22;61999;51.514;14.614;2023-07-22T11:01:36;18.60;37.20
15879;DHT22;61999;51.514;14.614;2023-07-22T11:04:17;18.70;38.20
15879;DHT22;61999;51.514;14.614;2023-07-22T11:07:00;19.00;37.30
15879;DHT22;61999;51.514;14.614;2023-07-22T11:09:40;19.30;36.50
15879;DHT22;61999;51.514;14.614;2023-07-22T11:12:15;19.60;35.70
15879;DHT22;61999;51.514;14.614;2023-07-22T11:14:46;20.00;34.80
15879;DHT22;61999;51.514;14.614;2023-07-22T11:17:16;20.50;33.50
15879;DHT22;61999;51.514;14.614;2023-07-22T11:19:45;20.50;33.10
15879;DHT22;61999;51.514;14.614;2023-07-22T11:22:17;20.40;34.60
15879;DHT22;61999;51.514;14.614;2023-07-22T11:24:45;20.50;33.10
15879;DHT22;61999;51.514;14.614;2023-07-22T11:27:12;20.50;34.70
15879;DHT22;61999;51.514;14.614;2023-07-22T11:29:41;20.80;34.30
15879;DHT22;61999;51.514;14.614;2023-07-22T11:32:17;21.10;34.50
15879;DHT22;61999;51.514;14.614;2023-07-22T11:34:48;21.50;34.80
15879;DHT22;61999;51.514;14.614;2023-07-22T11:37:20;21.90;31.60
15879;DHT22;61999;51.514;14.614;2023-07-22T11:39:48;21.90;30.70
15879;DHT22;61999;51.514;14.614;2023-07-22T11:42:17;21.30;31.20
15879;DHT22;61999;51.514;14.614;2023-07-22T11:44:45;20.80;31.80
15879;DHT22;61999;51.514;14.614;2023-07-22T11:47:13;20.50;32.90
15879;DHT22;61999;51.514;14.614;2023-07-22T11:49:46;20.20;33.90
15879;DHT22;61999;51.514;14.614;2023-07-22T11:52:16;20.00;34.40
15879;DHT22;61999;51.514;14.614;2023-07-22T11:54:49;20.10;34.40
15879;DHT22;61999;51.514;14.614;2023-07-22T11:57:19;20.40;34.10
15879;DHT22;61999;51.514;14.614;2023-07-22T11:59:51;20.70;33.30
15879;DHT22;61999;51.514;14.614;2023-07-22T12:02:24;21.30;31.80
15879;DHT22;61999;51.514;14.614;2023-07-22T12:04:56;21.30;32.90
15879;DHT22;61999;51.514;14.614;2023-07-22T12:07:27;21.30;32.70
15879;DHT22;61999;51.514;14.614;2023-07-22T12:10:00;21.30;31.80
15879;DHT22;61999;51.514;14.614;2023-07-22T12:12:33;21.20;32.10
15879;DHT22;61999;51.514;14.614;2023-07-22T12:15:03;21.40;31.20
15879;DHT22;61999;51.514;14.614;2023-07-22T12:17:46;21.50;31.90
15879;DHT22;61999;51.514;14.614;2023-07-22T12:20:16;21.40;30.90
15879;DHT22;61999;51.514;14.614;2023-07-22T12:22:45;21.40;30.90
15879;DHT22;61999;51.514;14.614;2023-07-22T12:25:14;21.10;31.50
15879;DHT22;61999;51.514;14.614;2023-07-22T12:27:43;20.80;32.60
15879;DHT22;61999;51.514;14.614;2023-07-22T12:30:12;20.80;33.50
15879;DHT22;61999;51.514;14.614;2023-07-22T12:32:41;21.20;31.10
15879;DHT22;61999;51.514;14.614;2023-07-22T12:35:09;21.50;31.90
15879;DHT22;61999;51.514;14.614;2023-07-22T12:37:37;21.80;32.00
15879;DHT22;61999;51.514;14.614;2023-07-22T12:40:06;22.10;30.70
15879;DHT22;61999;51.514;14.614;2023-07-22T12:42:36;22.20;29.60
15879;DHT22;61999;51.514;14.614;2023-07-22T12:45:05;22.10;31.20
15879;DHT22;61999;51.514;14.614;2023-07-22T12:47:34;22.40;29.50
15879;DHT22;61999;51.514;14.614;2023-07-22T12:50:06;22.60;29.50
15879;DHT22;61999;51.514;14.614;2023-07-22T12:52:35;23.10;29.30
15879;DHT22;61999;51.514;14.614;2023-07-22T12:55:03;23.40;28.80
15879;DHT22;61999;51.514;14.614;2023-07-22T12:57:32;23.70;29.10
15879;DHT22;61999;51.514;14.614;2023-07-22T13:00:01;23.90;28.00
15879;DHT22;61999;51.514;14.614;2023-07-22T13:02:32;23.80;28.10
15879;DHT22;61999;51.514;14.614;2023-07-22T13:05:00;23.90;29.30
15879;DHT22;61999;51.514;14.614;2023-07-22T13:07:28;24.30;27.90
15879;DHT22;61999;51.514;14.614;2023-07-22T13:09:57;24.70;28.40
15879;DHT22;61999;51.514;14.614;2023-07-22T13:12:27;24.80;28.40
15879;DHT22;61999;51.514;14.614;2023-07-22T13:14:55;24.90;27.90
15879;DHT22;61999;51.514;14.614;2023-07-22T13:17:24;24.90;26.90
15879;DHT22;61999;51.514;14.614;2023-07-22T13:19:53;24.60;27.30
15879;DHT22;61999;51.514;14.614;2023-07-22T13:22:21;24.40;26.80
15879;DHT22;61999;51.514;14.614;2023-07-22T13:24:49;24.10;27.40
15879;DHT22;61999;51.514;14.614;2023-07-22T13:27:16;24.00;28.20
15879;DHT22;61999;51.514;14.614;2023-07-22T13:29:44;24.10;28.10
15879;DHT22;61999;51.514;14.614;2023-07-22T13:32:12;24.40;27.40
15879;DHT22;61999;51.514;14.614;2023-07-22T13:34:42;24.60;26.90
15879;DHT22;61999;51.514;14.614;2023-07-22T13:37:09;24.80;27.30
15879;DHT22;61999;51.514;14.614;2023-07-22T13:39:37;24.90;26.60
15879;DHT22;61999;51.514;14.614;2023-07-22T13:42:05;24.80;26.70
15879;DHT22;61999;51.514;14.614;2023-07-22T13:44:34;24.90;27.30
15879;DHT22;61999;51.514;14.614;2023-07-22T13:47:03;24.90;26.80
15879;DHT22;61999;51.514;14.614;2023-07-22T13:49:31;24.90;26.60
15879;DHT22;61999;51.514;14.614;2023-07-22T13:52:01;24.50;26.50
15879;DHT22;61999;51.514;14.614;2023-07-22T13:54:29;24.00;27.20
15879;DHT22;61999;51.514;14.614;2023-07-22T13:56:57;23.70;26.90
15879;DHT22;61999;51.514;14.614;2023-07-22T13:59:25;23.30;27.50
15879;DHT22;61999;51.514;14.614;2023-07-22T14:01:53;22.90;27.80
15879;DHT22;61999;51.514;14.614;2023-07-22T14:04:20;22.80;27.60
15879;DHT22;61999;51.514;14.614;2023-07-22T14:06:48;22.60;27.50
15879;DHT22;61999;51.514;14.614;2023-07-22T14:09:17;22.30;28.00
15879;DHT22;61999;51.514;14.614;2023-07-22T14:11:45;22.20;29.00
15879;DHT22;61999;51.514;14.614;2023-07-22T14:14:13;22.10;29.20
15879;DHT22;61999;51.514;14.614;2023-07-22T14:16:41;22.20;29.30
15879;DHT22;61999;51.514;14.614;2023-07-22T14:19:09;22.20;29.80
15879;DHT22;61999;51.514;14.614;2023-07-22T14:21:37;22.10;29.40
15879;DHT22;61999;51.514;14.614;2023-07-22T14:24:05;22.30;29.00
15879;DHT22;61999;51.514;14.614;2023-07-22T14:26:34;22.40;28.70
15879;DHT22;61999;51.514;14.614;2023-07-22T14:29:02;22.50;28.70
15879;DHT22;61999;51.514;14.614;2023-07-22T14:31:30;22.40;28.50
15879;DHT22;61999;51.514;14.614;2023-07-22T14:33:58;22.40;29.30
15879;DHT22;61999;51.514;14.614;2023-07-22T14:36:26;22.40;29.50
15879;DHT22;61999;51.514;14.614;2023-07-22T14:38:54;22.60;30.40
15879;DHT22;61999;51.514;14.614;2023-07-22T14:41:24;23.00;29.90
15879;DHT22;61999;51.514;14.614;2023-07-22T14:43:53;23.50;28.70
15879;DHT22;61999;51.514;14.614;2023-07-22T14:46:21;23.90;28.90
15879;DHT22;61999;51.514;14.614;2023-07-22T14:48:49;24.20;29.00
15879;DHT22;61999;51.514;14.614;2023-07-22T14:51:17;24.70;27.70
15879;DHT22;61999;51.514;14.614;2023-07-22T14:53:45;25.00;28.00
15879;DHT22;61999;51.514;14.614;2023-07-22T14:56:13;25.00;27.40
15879;DHT22;61999;51.514;14.614;2023-07-22T14:58:41;24.90;28.10
15879;DHT22;61999;51.514;14.614;2023-07-22T15:01:10;24.90;28.10
15879;DHT22;61999;51.514;14.614;2023-07-22T15:03:39;24.90;27.20
15879;DHT22;61999;51.514;14.614;2023-07-22T15:06:07;25.00;27.30
15879;DHT22;61999;51.514;14.614;2023-07-22T15:08:35;25.10;27.00
15879;DHT22;61999;51.514;14.614;2023-07-22T15:11:03;24.80;27.50
15879;DHT22;61999;51.514;14.614;2023-07-22T15:13:31;24.70;27.20
15879;DHT22;61999;51.514;14.614;2023-07-22T15:15:59;24.60;27.30
15879;DHT22;61999;51.514;14.614;2023-07-22T15:18:28;24.20;27.70
15879;DHT22;61999;51.514;14.614;2023-07-22T15:20:56;24.00;28.20
15879;DHT22;61999;51.514;14.614;2023-07-22T15:23:24;23.80;29.00
15879;DHT22;61999;51.514;14.614;2023-07-22T15:25:52;23.70;28.70
15879;DHT22;61999;51.514;14.614;2023-07-22T15:28:20;24.00;27.30
15879;DHT22;61999;51.514;14.614;2023-07-22T15:30:48;24.50;27.20
15879;DHT22;61999;51.514;14.614;2023-07-22T15:33:16;24.40;28.40